sensor_id;sensor_type;location;lat;lon;timestamp;temperature;humidity
14993;DHT22;7592;51.088;13.732;2023-06-10T00:04:36;19.10;99.90
14993;DHT22;7592;51.088;13.732;2023-06-10T00:09:28;19.10;99.90
14993;DHT22;7592;51.088;13.732;2023-06-10T00:14:21;19.20;99.90
14993;DHT22;7592;51.088;13.732;2023-06-10T00:19:13;19.20;99.90
14993;DHT22;7592;51.088;13.732;2023-06-10T00:24:07;19.20;99.90
14993;DHT22;7592;51.088;13.732;2023-06-10T00:29:04;19.20;99.90
14993;DHT22;7592;51.088;13.732;2023-06-10T00:33:57;19.20;99.90
14993;DHT22;7592;51.088;13.732;2023-06-10T00:38:50;19.20;99.90
14993;DHT22;7592;51.088;13.732;2023-06-10T00:43:43;19.40;99.90
14993;DHT22;7592;51.088;13.732;2023-06-10T00:48:36;19.30;99.90
14993;DHT22;7592;51.088;13.732;2023-06-10T00:53:28;19.30;99.90
14993;DHT22;7592;51.088;13.732;2023-06-10T00:58:21;19.10;99.90
14993;DHT22;7592;51.088;13.732;2023-06-10T01:03:14;18.90;99.90
14993;DHT22;7592;51.088;13.732;2023-06-10T01:08:33;18.80;99.90
14993;DHT22;7592;51.088;13.732;2023-06-10T01:13:28;18.90;99.90
14993;DHT22;7592;51.088;13.732;2023-06-10T01:18:22;18.80;99.90
14993;DHT22;7592;51.088;13.732;2023-06-10T01:23:15;18.80;99.90
14993;DHT22;7592;51.088;13.732;2023-06-10T01:33:31;18.80;99.90
14993;DHT22;7592;51.088;13.732;2023-06-10T01:38:27;18.60;99.90
14993;DHT22;7592;51.088;13.732;2023-06-10T01:43:20;18.50;99.90
14993;DHT22;7592;51.088;13.732;2023-06-10T01:48:13;18.40;99.90
14993;DHT22;7592;51.088;13.732;2023-06-10T01:58:12;18.10;99.90
14993;DHT22;7592;51.088;13.732;2023-06-10T02:03:04;18.00;99.90
14993;DHT22;7592;51.088;13.732;2023-06-10T02:07:56;17.90;99.90
14993;DHT22;7592;51.088;13.732;2023-06-10T02:12:48;17.80;99.90
14993;DHT22;7592;51.088;13.732;2023-06-10T02:17:41;17.70;99.90
14993;DHT22;7592;51.088;13.732;2023-06-10T02:22:33;17.50;99.90
14993;DHT22;7592;51.088;13.732;2023-06-10T02:27:25;17.40;99.90
14993;DHT22;7592;51.088;13.732;2023-06-10T02:32:19;17.20;99.90
14993;DHT22;7592;51.088;13.732;2023-06-10T02:37:11;17.20;99.90
14993;DHT22;7592;51.088;13.732;2023-06-10T02:42:04;17.10;99.90
14993;DHT22;7592;51.088;13.732;2023-06-10T02:46:57;17.00;99.90
14993;DHT22;7592;51.088;13.732;2023-06-10T02:51:51;17.00;99.90
14993;DHT22;7592;51.088;13.732;2023-06-10T02:56:46;17.00;99.90
14993;DHT22;7592;51.088;13.732;2023-06-10T03:01:46;16.90;99.90
14993;DHT22;7592;51.088;13.732;2023-06-10T03:06:38;16.90;99.90
14993;DHT22;7592;51.088;13.732;2023-06-10T03:11:39;16.90;99.90
14993;DHT22;7592;51.088;13.732;2023-06-10T03:16:32;16.80;99.90
14993;DHT22;7592;51.088;13.732;2023-06-10T03:21:25;16.80;99.90
14993;DHT22;7592;51.088;13.732;2023-06-10T03:26:20;16.80;99.90
14993;DHT22;7592;51.088;13.732;2023-06-10T03:31:14;16.90;99.90
14993;DHT22;7592;51.088;13.732;2023-06-10T03:36:09;17.10;99.90
14993;DHT22;7592;51.088;13.732;2023-06-10T03:41:02;17.10;99.90
14993;DHT22;7592;51.088;13.732;2023-06-10T03:45:55;17.00;99.90
14993;DHT22;7592;51.088;13.732;2023-06-10T03:50:47;17.10;99.90
14993;DHT22;7592;51.088;13.732;2023-06-10T03:55:43;17.20;99.90
14993;DHT22;7592;51.088;13.732;2023-06-10T04:00:39;17.30;99.90
14993;DHT22;7592;51.088;13.732;2023-06-10T04:05:33;17.50;99.90
14993;DHT22;7592;51.088;13.732;2023-06-10T04:10:26;17.70;99.90
14993;DHT22;7592;51.088;13.732;2023-06-10T04:15:19;17.90;99.90
14993;DHT22;7592;51.088;13.732;2023-06-10T04:20:11;18.00;99.90
14993;DHT22;7592;51.088;13.732;2023-06-10T04:25:09;18.40;99.90
14993;DHT22;7592;51.088;13.732;2023-06-10T04:30:04;23.20;99.90
14993;DHT22;7592;51.088;13.732;2023-06-10T04:35:00;27.60;99.90
14993;DHT22;7592;51.088;13.732;2023-06-10T04:39:53;30.60;99.90
14993;DHT22;7592;51.088;13.732;2023-06-10T04:44:45;32.50;92.10
14993;DHT22;7592;51.088;13.732;2023-06-10T04:49:38;33.80;82.10
14993;DHT22;7592;51.088;13.732;2023-06-10T04:54:30;33.90;75.10
14993;DHT22;7592;51.088;13.732;2023-06-10T04:59:23;35.80;71.10
14993;DHT22;7592;51.088;13.732;2023-06-10T05:04:15;36.60;64.70
14993;DHT22;7592;51.088;13.732;2023-06-10T05:09:07;35.90;62.80
14993;DHT22;7592;51.088;13.732;2023-06-10T05:13:59;37.00;62.00
14993;DHT22;7592;51.088;13.732;2023-06-10T05:18:51;38.70;57.50
14993;DHT22;7592;51.088;13.732;2023-06-10T05:23:44;39.80;56.40
14993;DHT22;7592;51.088;13.732;2023-06-10T05:28:36;41.00;54.70
14993;DHT22;7592;51.088;13.732;2023-06-10T05:33:28;41.30;50.50
14993;DHT22;7592;51.088;13.732;2023-06-10T05:38:21;40.10;51.00
14993;DHT22;7592;51.088;13.732;2023-06-10T05:43:13;41.80;49.20
14993;DHT22;7592;51.088;13.732;2023-06-10T05:48:06;40.80;48.70
14993;DHT22;7592;51.088;13.732;2023-06-10T05:52:58;40.80;49.30
14993;DHT22;7592;51.088;13.732;2023-06-10T05:57:58;42.70;48.10
14993;DHT22;7592;51.088;13.732;2023-06-10T06:02:51;43.90;45.90
14993;DHT22;7592;51.088;13.732;2023-06-10T06:07:44;44.00;45.00
14993;DHT22;7592;51.088;13.732;2023-06-10T06:12:36;43.70;45.90
14993;DHT22;7592;51.088;13.732;2023-06-10T06:17:28;40.70;47.50
14993;DHT22;7592;51.088;13.732;2023-06-10T06:22:21;40.20;49.40
14993;DHT22;7592;51.088;13.732;2023-06-10T06:27:14;40.60;49.10
14993;DHT22;7592;51.088;13.732;2023-06-10T06:32:06;41.70;47.00
14993;DHT22;7592;51.088;13.732;2023-06-10T06:36:59;40.20;49.00
14993;DHT22;7592;51.088;13.732;2023-06-10T06:41:54;39.20;50.40
14993;DHT22;7592;51.088;13.732;2023-06-10T06:47:01;38.10;52.00
14993;DHT22;7592;51.088;13.732;2023-06-10T06:51:54;36.60;54.70
14993;DHT22;7592;51.088;13.732;2023-06-10T06:56:46;39.20;52.90
14993;DHT22;7592;51.088;13.732;2023-06-10T07:01:39;42.90;48.30
14993;DHT22;7592;51.088;13.732;2023-06-10T07:06:32;45.00;45.20
14993;DHT22;7592;51.088;13.732;2023-06-10T07:11:28;46.70;44.10
14993;DHT22;7592;51.088;13.732;2023-06-10T07:16:20;45.90;43.70
14993;DHT22;7592;51.088;13.732;2023-06-10T07:21:13;39.60;48.80
14993;DHT22;7592;51.088;13.732;2023-06-10T07:26:05;34.70;55.60
14993;DHT22;7592;51.088;13.732;2023-06-10T07:30:57;32.50;59.60
14993;DHT22;7592;51.088;13.732;2023-06-10T07:35:50;31.00;62.20
14993;DHT22;7592;51.088;13.732;2023-06-10T07:40:42;30.90;63.70
14993;DHT22;7592;51.088;13.732;2023-06-10T07:45:34;31.90;62.20
14993;DHT22;7592;51.088;13.732;2023-06-10T07:50:26;32.20;61.40
14993;DHT22;7592;51.088;13.732;2023-06-10T07:55:18;34.90;59.50
14993;DHT22;7592;51.088;13.732;2023-06-10T08:00:11;36.40;55.90
14993;DHT22;7592;51.088;13.732;2023-06-10T08:05:06;36.50;55.60
14993;DHT22;7592;51.088;13.732;2023-06-10T08:09:59;39.40;52.80
14993;DHT22;7592;51.088;13.732;2023-06-10T08:14:51;41.00;50.70
14993;DHT22;7592;51.088;13.732;2023-06-10T08:19:43;41.70;49.40
14993;DHT22;7592;51.088;13.732;2023-06-10T08:24:36;42.80;48.10
14993;DHT22;7592;51.088;13.732;2023-06-10T08:29:28;41.90;48.30
14993;DHT22;7592;51.088;13.732;2023-06-10T08:34:21;43.30;47.00
14993;DHT22;7592;51.088;13.732;2023-06-10T08:39:14;42.80;47.10
14993;DHT22;7592;51.088;13.732;2023-06-10T08:44:13;42.30;47.90
14993;DHT22;7592;51.088;13.732;2023-06-10T08:49:10;41.70;47.80
14993;DHT22;7592;51.088;13.732;2023-06-10T08:54:14;42.50;46.70
14993;DHT22;7592;51.088;13.732;2023-06-10T08:59:08;43.50;44.80
14993;DHT22;7592;51.088;13.732;2023-06-10T09:04:01;42.60;45.50
14993;DHT22;7592;51.088;13.732;2023-06-10T09:08:54;42.00;45.30
14993;DHT22;7592;51.088;13.732;2023-06-10T09:13:46;40.20;46.60
14993;DHT22;7592;51.088;13.732;2023-06-10T09:18:38;41.60;46.70
14993;DHT22;7592;51.088;13.732;2023-06-10T09:23:32;39.80;47.10
14993;DHT22;7592;51.088;13.732;2023-06-10T09:28:25;37.60;50.00
14993;DHT22;7592;51.088;13.732;2023-06-10T09:33:17;35.20;53.30
14993;DHT22;7592;51.088;13.732;2023-06-10T09:38:10;34.60;54.50
14993;DHT22;7592;51.088;13.732;2023-06-10T09:43:02;34.80;54.20
14993;DHT22;7592;51.088;13.732;2023-06-10T09:47:55;34.90;53.30
14993;DHT22;7592;51.088;13.732;2023-06-10T09:52:47;36.90;50.10
14993;DHT22;7592;51.088;13.732;2023-06-10T09:57:41;38.00;47.50
14993;DHT22;7592;51.088;13.732;2023-06-10T10:02:53;39.60;46.00
14993;DHT22;7592;51.088;13.732;2023-06-10T10:07:46;40.20;44.30
14993;DHT22;7592;51.088;13.732;2023-06-10T10:12:40;39.00;45.20
14993;DHT22;7592;51.088;13.732;2023-06-10T10:17:32;39.60;45.10
14993;DHT22;7592;51.088;13.732;2023-06-10T10:22:38;39.00;46.40
14993;DHT22;7592;51.088;13.732;2023-06-10T10:33:04;39.90;46.30
14993;DHT22;7592;51.088;13.732;2023-06-10T10:38:02;38.30;46.90
14993;DHT22;7592;51.088;13.732;2023-06-10T10:42:56;34.60;51.60
14993;DHT22;7592;51.088;13.732;2023-06-10T10:47:54;34.50;52.10
14993;DHT22;7592;51.088;13.732;2023-06-10T10:52:59;35.60;51.30
14993;DHT22;7592;51.088;13.732;2023-06-10T10:57:57;34.40;53.20
14993;DHT22;7592;51.088;13.732;2023-06-10T11:02:49;33.40;53.80
14993;DHT22;7592;51.088;13.732;2023-06-10T11:07:54;32.90;55.20
14993;DHT22;7592;51.088;13.732;2023-06-10T11:12:53;31.40;57.10
14993;DHT22;7592;51.088;13.732;2023-06-10T11:18:08;30.40;58.90
14993;DHT22;7592;51.088;13.732;2023-06-10T11:23:03;30.30;59.00
14993;DHT22;7592;51.088;13.732;2023-06-10T11:27:55;31.50;58.10
14993;DHT22;7592;51.088;13.732;2023-06-10T11:32:51;31.50;56.80
14993;DHT22;7592;51.088;13.732;2023-06-10T11:37:49;31.10;58.10
14993;DHT22;7592;51.088;13.732;2023-06-10T11:42:42;30.20;58.90
14993;DHT22;7592;51.088;13.732;2023-06-10T11:47:34;30.10;59.40
14993;DHT22;7592;51.088;13.732;2023-06-10T11:52:30;30.00;59.50
14993;DHT22;7592;51.088;13.732;2023-06-10T11:57:34;29.70;59.90
14993;DHT22;7592;51.088;13.732;2023-06-10T12:02:27;29.50;60.90
14993;DHT22;7592;51.088;13.732;2023-06-10T12:07:19;29.10;60.20
14993;DHT22;7592;51.088;13.732;2023-06-10T12:12:13;28.80;61.50
14993;DHT22;7592;51.088;13.732;2023-06-10T12:17:05;28.80;59.70
14993;DHT22;7592;51.088;13.732;2023-06-10T12:22:00;29.40;60.00
14993;DHT22;7592;51.088;13.732;2023-06-10T12:26:54;29.60;58.00
14993;DHT22;7592;51.088;13.732;2023-06-10T12:32:04;29.80;58.40
14993;DHT22;7592;51.088;13.732;2023-06-10T12:37:04;29.10;59.10
14993;DHT22;7592;51.088;13.732;2023-06-10T12:41:56;28.90;59.80
14993;DHT22;7592;51.088;13.732;2023-06-10T12:46:54;28.50;57.00
14993;DHT22;7592;51.088;13.732;2023-06-10T12:51:47;28.50;57.70
14993;DHT22;7592;51.088;13.732;2023-06-10T12:56:40;28.70;57.50
14993;DHT22;7592;51.088;13.732;2023-06-10T13:01:32;28.90;57.80
14993;DHT22;7592;51.088;13.732;2023-06-10T13:06:25;28.90;56.50
14993;DHT22;7592;51.088;13.732;2023-06-10T13:11:17;28.40;57.30
14993;DHT22;7592;51.088;13.732;2023-06-10T13:16:09;28.40;58.10
14993;DHT22;7592;51.088;13.732;2023-06-10T13:21:01;28.40;59.80
14993;DHT22;7592;51.088;13.732;2023-06-10T13:25:54;28.50;58.30
14993;DHT22;7592;51.088;13.732;2023-06-10T13:30:46;28.60;58.00
14993;DHT22;7592;51.088;13.732;2023-06-10T13:35:38;28.60;56.90
14993;DHT22;7592;51.088;13.732;2023-06-10T13:40:30;28.40;56.70
14993;DHT22;7592;51.088;13.732;2023-06-10T13:45:22;28.30;55.70
14993;DHT22;7592;51.088;13.732;2023-06-10T13:50:14;28.40;57.20
14993;DHT22;7592;51.088;13.732;2023-06-10T13:55:07;28.60;54.80
14993;DHT22;7592;51.088;13.732;2023-06-10T14:00:00;28.60;55.00
14993;DHT22;7592;51.088;13.732;2023-06-10T14:04:54;28.40;53.80
14993;DHT22;7592;51.088;13.732;2023-06-10T14:09:47;28.60;55.00
14993;DHT22;7592;51.088;13.732;2023-06-10T14:14:39;28.40;53.30
14993;DHT22;7592;51.088;13.732;2023-06-10T14:19:31;28.40;54.30
14993;DHT22;7592;51.088;13.732;2023-06-10T14:24:24;28.30;53.60
14993;DHT22;7592;51.088;13.732;2023-06-10T14:29:16;28.30;50.90
14993;DHT22;7592;51.088;13.732;2023-06-10T14:34:10;28.20;50.70
14993;DHT22;7592;51.088;13.732;2023-06-10T14:39:02;28.10;51.30
14993;DHT22;7592;51.088;13.732;2023-06-10T14:43:55;28.00;51.30
14993;DHT22;7592;51.088;13.732;2023-06-10T14:48:47;28.00;51.50
14993;DHT22;7592;51.088;13.732;2023-06-10T14:53:41;28.00;52.90
14993;DHT22;7592;51.088;13.732;2023-06-10T14:58:34;28.00;54.10
14993;DHT22;7592;51.088;13.732;2023-06-10T15:03:26;28.00;54.00
14993;DHT22;7592;51.088;13.732;2023-06-10T15:08:18;28.00;54.80
14993;DHT22;7592;51.088;13.732;2023-06-10T15:13:10;28.10;54.10
14993;DHT22;7592;51.088;13.732;2023-06-10T15:18:03;28.10;54.40
14993;DHT22;7592;51.088;13.732;2023-06-10T15:22:55;28.10;54.70
14993;DHT22;7592;51.088;13.732;2023-06-10T15:27:47;28.00;55.70
14993;DHT22;7592;51.088;13.732;2023-06-10T15:32:39;28.10;56.10
14993;DHT22;7592;51.088;13.732;2023-06-10T15:37:32;28.20;56.10
14993;DHT22;7592;51.088;13.732;2023-06-10T15:42:25;28.00;57.40
14993;DHT22;7592;51.088;13.732;2023-06-10T15:47:18;28.00;57.50
14993;DHT22;7592;51.088;13.732;2023-06-10T15:52:10;28.00;58.00
14993;DHT22;7592;51.088;13.732;2023-06-10T15:57:03;27.90;58.40
14993;DHT22;7592;51.088;13.732;2023-06-10T16:01:55;28.00;58.20
14993;DHT22;7592;51.088;13.732;2023-06-10T16:06:47;28.00;57.60
14993;DHT22;7592;51.088;13.732;2023-06-10T16:11:41;27.90;56.70
14993;DHT22;7592;51.088;13.732;2023-06-10T16:16:33;27.70;56.70
14993;DHT22;7592;51.088;13.732;2023-06-10T16:21:25;27.80;56.90
14993;DHT22;7592;51.088;13.732;2023-06-10T16:26:18;27.80;57.50
14993;DHT22;7592;51.088;13.732;2023-06-10T16:31:10;27.70;57.50
14993;DHT22;7592;51.088;13.732;2023-06-10T16:36:02;27.60;58.10
14993;DHT22;7592;51.088;13.732;2023-06-10T16:40:54;27.60;57.80
14993;DHT22;7592;51.088;13.732;2023-06-10T16:45:46;27.70;56.90
14993;DHT22;7592;51.088;13.732;2023-06-10T16:50:39;27.70;57.50
14993;DHT22;7592;51.088;13.732;2023-06-10T16:55:31;27.30;57.30
14993;DHT22;7592;51.088;13.732;2023-06-10T17:00:23;27.20;57.70
14993;DHT22;7592;51.088;13.732;2023-06-10T17:05:17;27.10;58.20
14993;DHT22;7592;51.088;13.732;2023-06-10T17:10:10;27.00;58.10
14993;DHT22;7592;51.088;13.732;2023-06-10T17:15:02;27.00;58.90
14993;DHT22;7592;51.088;13.732;2023-06-10T17:19:56;26.90;59.00
14993;DHT22;7592;51.088;13.732;2023-06-10T17:24:48;26.70;58.60
14993;DHT22;7592;51.088;13.732;2023-06-10T17:29:40;26.50;59.40
14993;DHT22;7592;51.088;13.732;2023-06-10T17:34:33;26.30;60.30
14993;DHT22;7592;51.088;13.732;2023-06-10T17:39:25;26.20;60.80
14993;DHT22;7592;51.088;13.732;2023-06-10T17:44:17;26.10;61.40
14993;DHT22;7592;51.088;13.732;2023-06-10T17:49:13;26.00;62.50
14993;DHT22;7592;51.088;13.732;2023-06-10T17:54:05;25.90;64.30
14993;DHT22;7592;51.088;13.732;2023-06-10T17:58:59;25.90;64.80
14993;DHT22;7592;51.088;13.732;2023-06-10T18:03:51;25.90;64.70
14993;DHT22;7592;51.088;13.732;2023-06-10T18:08:44;25.80;65.30
14993;DHT22;7592;51.088;13.732;2023-06-10T18:13:37;25.70;65.20
14993;DHT22;7592;51.088;13.732;2023-06-10T18:18:30;25.50;65.90
14993;DHT22;7592;51.088;13.732;2023-06-10T18:23:22;25.30;67.10
14993;DHT22;7592;51.088;13.732;2023-06-10T18:28:14;25.20;67.60
14993;DHT22;7592;51.088;13.732;2023-06-10T18:33:07;25.00;69.60
14993;DHT22;7592;51.088;13.732;2023-06-10T18:38:00;24.80;71.30
14993;DHT22;7592;51.088;13.732;2023-06-10T18:42:52;24.60;72.40
14993;DHT22;7592;51.088;13.732;2023-06-10T18:47:44;24.40;73.90
14993;DHT22;7592;51.088;13.732;2023-06-10T18:52:49;24.20;75.00
14993;DHT22;7592;51.088;13.732;2023-06-10T18:57:44;23.90;76.10
14993;DHT22;7592;51.088;13.732;2023-06-10T19:02:36;23.80;75.10
14993;DHT22;7592;51.088;13.732;2023-06-10T19:07:28;23.60;77.90
14993;DHT22;7592;51.088;13.732;2023-06-10T19:12:20;23.50;79.30
14993;DHT22;7592;51.088;13.732;2023-06-10T19:17:14;23.20;81.00
14993;DHT22;7592;51.088;13.732;2023-06-10T19:22:08;23.00;83.90
14993;DHT22;7592;51.088;13.732;2023-06-10T19:27:00;22.90;85.60
14993;DHT22;7592;51.088;13.732;2023-06-10T19:31:52;22.80;87.60
14993;DHT22;7592;51.088;13.732;2023-06-10T19:36:44;22.70;88.10
14993;DHT22;7592;51.088;13.732;2023-06-10T19:41:40;22.60;89.90
14993;DHT22;7592;51.088;13.732;2023-06-10T19:46:32;22.50;90.50
14993;DHT22;7592;51.088;13.732;2023-06-10T19:51:24;22.60;90.00
14993;DHT22;7592;51.088;13.732;2023-06-10T19:56:16;22.70;86.00
14993;DHT22;7592;51.088;13.732;2023-06-10T20:01:14;22.50;88.10
14993;DHT22;7592;51.088;13.732;2023-06-10T20:06:07;22.50;87.20
14993;DHT22;7592;51.088;13.732;2023-06-10T20:11:00;22.50;84.30
14993;DHT22;7592;51.088;13.732;2023-06-10T20:15:54;22.50;83.00
14993;DHT22;7592;51.088;13.732;2023-06-10T20:20:47;22.50;81.70
14993;DHT22;7592;51.088;13.732;2023-06-10T20:25:40;22.40;80.80
14993;DHT22;7592;51.088;13.732;2023-06-10T20:30:33;22.30;80.70
14993;DHT22;7592;51.088;13.732;2023-06-10T20:35:26;22.30;80.10
14993;DHT22;7592;51.088;13.732;2023-06-10T20:40:19;22.10;81.80
14993;DHT22;7592;51.088;13.732;2023-06-10T20:45:11;22.00;80.80
14993;DHT22;7592;51.088;13.732;2023-06-10T20:50:06;22.00;79.80
14993;DHT22;7592;51.088;13.732;2023-06-10T20:54:59;21.90;79.80
14993;DHT22;7592;51.088;13.732;2023-06-10T20:59:52;21.70;80.20
14993;DHT22;7592;51.088;13.732;2023-06-10T21:04:44;21.60;80.90
14993;DHT22;7592;51.088;13.732;2023-06-10T21:09:36;21.70;80.10
14993;DHT22;7592;51.088;13.732;2023-06-10T21:14:29;21.60;80.20
14993;DHT22;7592;51.088;13.732;2023-06-10T21:19:24;21.50;80.50
14993;DHT22;7592;51.088;13.732;2023-06-10T21:24:16;21.40;80.90
14993;DHT22;7592;51.088;13.732;2023-06-10T21:29:09;21.40;80.70
14993;DHT22;7592;51.088;13.732;2023-06-10T21:34:02;21.30;80.90
14993;DHT22;7592;51.088;13.732;2023-06-10T21:38:54;21.20;81.80
14993;DHT22;7592;51.088;13.732;2023-06-10T21:43:46;21.00;83.30
14993;DHT22;7592;51.088;13.732;2023-06-10T21:48:39;20.90;83.70
14993;DHT22;7592;51.088;13.732;2023-06-10T21:53:31;20.90;83.50
14993;DHT22;7592;51.088;13.732;2023-06-10T21:58:24;20.70;84.20
14993;DHT22;7592;51.088;13.732;2023-06-10T22:03:16;20.60;85.00
14993;DHT22;7592;51.088;13.732;2023-06-10T22:08:09;20.60;84.40
14993;DHT22;7592;51.088;13.732;2023-06-10T22:13:01;20.40;84.10
14993;DHT22;7592;51.088;13.732;2023-06-10T22:17:53;20.30;83.80
14993;DHT22;7592;51.088;13.732;2023-06-10T22:22:46;20.30;83.10
14993;DHT22;7592;51.088;13.732;2023-06-10T22:27:38;20.10;86.00
14993;DHT22;7592;51.088;13.732;2023-06-10T22:32:31;20.10;83.50
14993;DHT22;7592;51.088;13.732;2023-06-10T22:37:24;19.90;87.70
14993;DHT22;7592;51.088;13.732;2023-06-10T22:42:16;19.70;89.80
14993;DHT22;7592;51.088;13.732;2023-06-10T22:47:08;19.60;90.40
14993;DHT22;7592;51.088;13.732;2023-06-10T22:52:00;19.40;94.00
14993;DHT22;7592;51.088;13.732;2023-06-10T22:56:53;19.20;96.40
14993;DHT22;7592;51.088;13.732;2023-06-10T23:01:45;19.00;98.80
14993;DHT22;7592;51.088;13.732;2023-06-10T23:06:37;18.90;99.90
14993;DHT22;7592;51.088;13.732;2023-06-10T23:11:29;18.80;99.90
14993;DHT22;7592;51.088;13.732;2023-06-10T23:16:21;18.70;99.90
14993;DHT22;7592;51.088;13.732;2023-06-10T23:21:15;18.60;99.90
14993;DHT22;7592;51.088;13.732;2023-06-10T23:26:11;18.40;99.90
14993;DHT22;7592;51.088;13.732;2023-06-10T23:31:03;18.30;99.90
14993;DHT22;7592;51.088;13.732;2023-06-10T23:35:55;18.20;99.90
14993;DHT22;7592;51.088;13.732;2023-06-10T23:40:47;18.10;99.90
14993;DHT22;7592;51.088;13.732;2023-06-10T23:45:39;18.00;99.90
14993;DHT22;7592;51.088;13.732;2023-06-10T23:50:31;17.90;99.90
14993;DHT22;7592;51.088;13.732;2023-06-10T23:55:27;17.70;99.90
